TimeEDT,TemperatureF,Dew PointF,Humidity,Sea Level PressureIn,VisibilityMPH,Wind Direction,Wind SpeedMPH,Gust SpeedMPH,PrecipitationIn,Events,Conditions,WindDirDegrees,DateUTC
12:53 AM,78.1,75.0,90,30.00,10.0,WNW,3.5,-,N/A,,Clear,300,2012-10-09 04:53:00
1:53 AM,78.1,75.0,90,29.98,9.0,NW,3.5,-,N/A,,Clear,320,2012-10-09 05:53:00
2:53 AM,78.1,75.0,90,29.98,8.0,Calm,Calm,-,N/A,,Clear,0,2012-10-09 06:53:00
4:53 AM,77.0,75.9,96,29.98,5.0,Calm,Calm,-,N/A,,Clear,0,2012-10-09 08:53:00
5:53 AM,75.9,75.0,97,29.99,5.0,North,3.5,-,N/A,,Clear,360,2012-10-09 09:53:00
6:53 AM,75.9,75.0,97,29.99,5.0,Calm,Calm,-,N/A,,Clear,0,2012-10-09 10:53:00
7:53 AM,77.0,77.0,100,30.00,3.0,Calm,Calm,-,N/A,,Clear,0,2012-10-09 11:53:00
8:53 AM,81.0,77.0,88,30.01,8.0,North,4.6,-,N/A,,Clear,350,2012-10-09 12:53:00
9:53 AM,84.0,75.0,74,30.03,10.0,North,5.8,-,N/A,,Clear,360,2012-10-09 13:53:00
10:53 AM,86.0,73.9,67,30.04,10.0,NE,4.6,-,N/A,,Clear,40,2012-10-09 14:53:00
11:53 AM,86.0,72.0,63,30.04,10.0,Calm,Calm,-,N/A,,Mostly Cloudy,0,2012-10-09 15:53:00
12:53 PM,86.0,71.1,61,30.02,10.0,Calm,Calm,-,N/A,,Mostly Cloudy,0,2012-10-09 16:53:00
1:53 PM,87.1,72.0,61,30.00,10.0,East,9.2,-,N/A,,Mostly Cloudy,100,2012-10-09 17:53:00
2:53 PM,86.0,72.0,63,29.99,10.0,NE,9.2,-,0.00,,Mostly Cloudy,40,2012-10-09 18:53:00
3:53 PM,87.1,72.0,61,29.97,10.0,East,3.5,-,N/A,,Scattered Clouds,80,2012-10-09 19:53:00
4:53 PM,84.9,72.0,65,29.98,10.0,ENE,6.9,-,N/A,,Clear,70,2012-10-09 20:53:00
5:53 PM,84.0,73.9,72,29.98,10.0,East,9.2,-,N/A,,Partly Cloudy,80,2012-10-09 21:53:00
6:53 PM,82.9,73.9,74,29.99,10.0,ENE,8.1,-,N/A,,Clear,70,2012-10-09 22:53:00
7:53 PM,82.0,75.0,79,30.00,10.0,NE,5.8,-,N/A,,Scattered Clouds,40,2012-10-09 23:53:00
8:53 PM,82.0,75.0,79,30.02,10.0,NE,8.1,-,N/A,,Scattered Clouds,50,2012-10-10 00:53:00
9:53 PM,82.0,73.9,76,30.04,10.0,NNE,3.5,-,N/A,,Scattered Clouds,30,2012-10-10 01:53:00
10:53 PM,81.0,73.9,79,30.04,10.0,Calm,Calm,-,N/A,,Partly Cloudy,0,2012-10-10 02:53:00
11:34 PM,80.6,73.4,79,30.04,10.0,NNE,3.5,-,N/A,,Overcast,20,2012-10-10 03:34:00
11:49 PM,80.6,75.2,84,30.04,10.0,Calm,Calm,-,N/A,,Scattered Clouds,0,2012-10-10 03:49:00
11:53 PM,80.1,73.9,81,30.04,10.0,Calm,Calm,-,N/A,,Scattered Clouds,0,2012-10-10 03:53:00